Time;durP1;ratioP1;P1;durP2;ratioP2;P2;SDS_P1;SDS_P2;PMS_P1;PMS_P2;Temp;Humidity;BMP_temperature;BMP_pressure;BME280_temperature;BME280_humidity;BME280_pressure;Samples;Min_cycle;Max_cycle;Signal;HPM_P1;HPM_P2
2022/02/14 00:00:10;;;;;;;16.53;8.53;;;2.10;81.60;;;;;;5078820;28;20300;-67
2022/02/14 00:02:37;;;;;;;16.43;9.00;;;2.00;81.50;;;;;;5072816;28;20201;-66
2022/02/14 00:05:06;;;;;;;17.27;8.60;;;2.00;81.30;;;;;;5074279;28;20335;-65
2022/02/14 00:07:33;;;;;;;15.47;7.80;;;1.90;81.20;;;;;;5074266;28;20332;-67
2022/02/14 00:10:00;;;;;;;13.73;7.67;;;2.00;81.20;;;;;;5072764;28;20209;-67
2022/02/14 00:12:27;;;;;;;15.20;7.90;;;2.00;81.10;;;;;;5074209;28;20243;-67
2022/02/14 00:14:53;;;;;;;15.07;8.27;;;2.00;80.80;;;;;;5063192;28;20265;-66
2022/02/14 00:17:21;;;;;;;17.20;8.97;;;1.90;80.50;;;;;;5069447;28;20210;-66
2022/02/14 00:19:50;;;;;;;17.57;8.90;;;1.90;80.30;;;;;;5074940;28;20266;-65
2022/02/14 00:22:21;;;;;;;16.97;8.37;;;1.90;80.20;;;;;;5074684;28;20217;-66
2022/02/14 00:24:50;;;;;;;14.33;7.83;;;1.90;80.10;;;;;;5072729;28;20652;-67
2022/02/14 00:27:17;;;;;;;12.87;7.50;;;1.80;80.00;;;;;;5071477;28;20198;-66
2022/02/14 00:29:44;;;;;;;18.00;8.50;;;1.80;79.90;;;;;;5086314;28;20327;-67
2022/02/14 00:32:11;;;;;;;15.70;8.00;;;1.80;79.80;;;;;;5071299;28;20214;-66
2022/02/14 00:34:39;;;;;;;19.00;8.03;;;1.80;79.80;;;;;;5072031;28;20286;-66
2022/02/14 00:37:06;;;;;;;14.93;8.33;;;1.70;79.70;;;;;;5076973;28;20682;-66
2022/02/14 00:39:34;;;;;;;15.30;8.03;;;1.70;79.70;;;;;;5066817;28;20205;-66
2022/02/14 00:42:01;;;;;;;17.50;7.97;;;1.70;80.00;;;;;;5063631;28;20565;-67
2022/02/14 00:44:28;;;;;;;18.57;8.50;;;1.70;79.80;;;;;;5078169;28;20223;-66
2022/02/14 00:46:55;;;;;;;16.83;8.43;;;1.60;79.60;;;;;;5084245;28;20292;-66
2022/02/14 00:49:22;;;;;;;14.90;8.33;;;1.60;79.60;;;;;;5072847;28;20299;-66
2022/02/14 00:51:48;;;;;;;16.37;8.13;;;1.60;79.60;;;;;;5072561;28;20708;-65
2022/02/14 00:54:15;;;;;;;20.17;9.37;;;1.50;79.50;;;;;;5077375;28;20213;-66
2022/02/14 00:56:43;;;;;;;19.03;8.70;;;1.50;79.50;;;;;;5078481;28;20578;-66
2022/02/14 00:59:10;;;;;;;16.30;8.83;;;1.40;79.40;;;;;;5075285;28;20296;-66
2022/02/14 01:01:37;;;;;;;18.13;9.00;;;1.40;79.50;;;;;;5072820;28;20296;-66
2022/02/14 01:04:04;;;;;;;19.30;9.40;;;1.40;80.40;;;;;;5072461;28;20205;-67
2022/02/14 01:06:31;;;;;;;19.47;8.13;;;1.40;79.80;;;;;;5072356;28;20636;-68
2022/02/14 01:08:58;;;;;;;17.27;9.03;;;1.30;79.80;;;;;;5082515;28;20633;-68
2022/02/14 01:11:25;;;;;;;18.20;8.60;;;1.30;79.80;;;;;;5071947;28;20657;-66
2022/02/14 01:13:53;;;;;;;18.07;9.47;;;1.30;79.90;;;;;;5079179;28;20212;-65
2022/02/14 01:16:20;;;;;;;19.03;8.93;;;1.30;79.90;;;;;;5076368;28;20229;-68
2022/02/14 01:18:48;;;;;;;17.97;8.23;;;1.30;80.10;;;;;;5079222;28;20298;-68
2022/02/14 01:21:16;;;;;;;14.77;8.80;;;1.20;80.00;;;;;;5072835;28;20273;-66
2022/02/14 01:23:43;;;;;;;17.77;8.93;;;1.20;80.10;;;;;;5078032;28;20209;-67
2022/02/14 01:26:10;;;;;;;14.87;8.43;;;1.20;80.10;;;;;;5073739;28;20744;-68
2022/02/14 01:28:36;;;;;;;15.10;8.90;;;1.20;80.10;;;;;;5071386;28;20231;-67
2022/02/14 01:31:05;;;;;;;16.03;8.83;;;1.20;80.10;;;;;;5071103;28;20204;-66
2022/02/14 01:33:31;;;;;;;15.83;8.23;;;1.10;80.80;;;;;;5067578;28;20197;-68
2022/02/14 01:35:59;;;;;;;19.10;9.27;;;1.20;80.30;;;;;;5077185;28;20197;-67
2022/02/14 01:38:26;;;;;;;18.37;9.23;;;1.10;80.20;;;;;;5083141;28;20316;-67
2022/02/14 01:40:52;;;;;;;15.80;8.63;;;1.10;80.40;;;;;;5076239;28;20237;-68
2022/02/14 01:43:19;;;;;;;18.10;9.37;;;1.10;80.40;;;;;;5075899;28;20209;-67
2022/02/14 01:45:46;;;;;;;17.87;8.70;;;1.10;80.50;;;;;;5076043;28;20224;-67
2022/02/14 01:48:15;;;;;;;16.43;8.17;;;1.10;80.50;;;;;;5070439;28;20229;-67
2022/02/14 01:50:41;;;;;;;19.93;9.70;;;1.10;80.50;;;;;;5076372;28;20579;-66
2022/02/14 01:53:09;;;;;;;18.63;9.27;;;1.10;80.50;;;;;;5075714;28;20292;-66
2022/02/14 01:55:35;;;;;;;16.23;8.03;;;1.10;80.60;;;;;;5072715;28;20201;-67
2022/02/14 01:58:03;;;;;;;17.70;9.00;;;1.10;80.60;;;;;;5075416;28;20224;-67
2022/02/14 02:00:30;;;;;;;17.83;8.07;;;1.10;80.60;;;;;;5069221;28;20204;-67
2022/02/14 02:02:58;;;;;;;18.37;8.90;;;1.00;80.50;;;;;;5066216;28;20213;-67
2022/02/14 02:05:26;;;;;;;17.83;9.07;;;1.00;80.50;;;;;;5076188;28;20308;-68
2022/02/14 02:07:53;;;;;;;18.80;9.73;;;1.00;80.70;;;;;;5074735;28;20213;-67
2022/02/14 02:10:20;;;;;;;19.73;9.07;;;1.00;80.90;;;;;;5073642;28;20272;-67
2022/02/14 02:12:52;;;;;;;19.97;9.17;;;0.90;81.00;;;;;;5083384;28;20233;-67
2022/02/14 02:15:19;;;;;;;18.33;9.10;;;0.90;81.20;;;;;;5076216;28;20197;-67
2022/02/14 02:17:46;;;;;;;15.53;9.40;;;0.80;81.40;;;;;;5072589;28;20233;-66
2022/02/14 02:20:15;;;;;;;16.80;8.83;;;0.80;81.60;;;;;;5075885;28;20829;-66
2022/02/14 02:22:45;;;;;;;17.43;8.03;;;0.80;81.80;;;;;;5081353;28;20688;-67
2022/02/14 02:25:15;;;;;;;18.13;9.13;;;0.80;81.80;;;;;;5074884;28;20229;-66
2022/02/14 02:27:42;;;;;;;17.67;8.73;;;0.80;81.90;;;;;;5061982;28;20305;-66
2022/02/14 02:30:11;;;;;;;17.20;9.03;;;0.80;82.20;;;;;;5087010;28;20719;-66
2022/02/14 02:32:38;;;;;;;18.67;8.97;;;0.70;82.30;;;;;;5075321;28;20318;-66
2022/02/14 02:35:08;;;;;;;18.63;9.00;;;0.70;82.60;;;;;;5071177;28;20208;-66
2022/02/14 02:37:35;;;;;;;20.00;9.27;;;0.70;82.70;;;;;;5074809;28;20292;-66
2022/02/14 02:40:03;;;;;;;17.63;9.63;;;0.60;82.80;;;;;;5074600;28;20631;-67
2022/02/14 02:42:31;;;;;;;20.20;9.17;;;0.60;83.10;;;;;;5070798;28;20197;-66
2022/02/14 02:44:58;;;;;;;20.90;10.00;;;0.60;83.40;;;;;;5074743;28;20705;-65
2022/02/14 02:47:26;;;;;;;19.30;9.00;;;0.60;83.70;;;;;;5074187;28;20213;-66
2022/02/14 02:49:54;;;;;;;18.10;8.30;;;0.40;83.70;;;;;;5074108;28;20209;-66
2022/02/14 02:52:21;;;;;;;16.23;8.87;;;0.50;83.90;;;;;;5072940;28;20543;-66
2022/02/14 02:54:50;;;;;;;18.10;10.00;;;0.50;84.00;;;;;;5064402;28;20231;-66
2022/02/14 02:57:17;;;;;;;20.87;9.57;;;0.50;84.10;;;;;;5073320;28;20205;-66
2022/02/14 02:59:46;;;;;;;18.70;9.33;;;0.50;84.20;;;;;;5074412;28;20205;-66
2022/02/14 03:02:13;;;;;;;21.77;10.00;;;0.50;84.40;;;;;;5074643;28;20559;-66
2022/02/14 03:04:40;;;;;;;18.30;9.37;;;0.40;84.20;;;;;;5080585;28;20232;-66
2022/02/14 03:07:07;;;;;;;20.83;9.23;;;0.40;84.20;;;;;;5082026;28;20259;-66
2022/02/14 03:09:34;;;;;;;20.93;9.93;;;0.40;84.30;;;;;;5070673;28;20209;-66
2022/02/14 03:12:01;;;;;;;20.20;9.57;;;0.40;84.10;;;;;;5076268;28;20228;-67
2022/02/14 03:14:28;;;;;;;18.73;9.87;;;0.40;84.10;;;;;;5074759;28;20625;-66
2022/02/14 03:16:56;;;;;;;21.50;10.53;;;0.40;84.20;;;;;;5071354;28;20292;-65
2022/02/14 03:19:23;;;;;;;18.93;9.13;;;0.40;84.20;;;;;;5073910;28;20359;-67
2022/02/14 03:21:50;;;;;;;22.47;10.17;;;0.40;84.10;;;;;;5072163;28;20317;-66
2022/02/14 03:24:17;;;;;;;20.43;9.93;;;0.50;84.10;;;;;;5074224;28;20221;-66
2022/02/14 03:26:44;;;;;;;19.80;9.07;;;0.40;83.90;;;;;;5073275;28;20224;-66
2022/02/14 03:29:14;;;;;;;19.30;10.20;;;0.40;83.80;;;;;;5074137;28;20649;-66
2022/02/14 03:31:41;;;;;;;20.47;9.03;;;0.40;83.80;;;;;;5072541;28;20699;-65
2022/02/14 03:34:10;;;;;;;18.70;9.40;;;0.40;83.70;;;;;;5075015;28;20288;-65
2022/02/14 03:36:37;;;;;;;20.90;10.23;;;0.40;83.40;;;;;;5073888;28;20207;-66
2022/02/14 03:39:05;;;;;;;24.50;10.00;;;0.40;83.30;;;;;;5078536;28;20302;-66
2022/02/14 03:41:31;;;;;;;20.10;9.47;;;0.40;83.20;;;;;;5082979;28;20701;-66
2022/02/14 03:43:58;;;;;;;21.73;10.00;;;0.40;83.20;;;;;;5073749;28;20292;-66
2022/02/14 03:46:25;;;;;;;26.13;10.87;;;0.40;83.10;;;;;;5074018;28;20592;-66
2022/02/14 03:48:52;;;;;;;21.80;9.37;;;0.30;82.90;;;;;;5070991;28;20642;-66
2022/02/14 03:51:21;;;;;;;19.23;9.60;;;0.40;82.90;;;;;;5074594;28;20288;-66
2022/02/14 03:53:48;;;;;;;18.37;8.47;;;0.40;82.90;;;;;;5062353;28;20216;-67
2022/02/14 03:56:14;;;;;;;20.73;9.47;;;0.40;82.90;;;;;;5080432;28;20216;-67
2022/02/14 03:58:41;;;;;;;18.93;8.67;;;0.30;82.80;;;;;;5073310;28;20224;-66
2022/02/14 04:01:08;;;;;;;21.23;10.13;;;0.30;82.90;;;;;;5073802;28;20658;-65
2022/02/14 04:03:35;;;;;;;19.37;9.17;;;0.30;82.90;;;;;;5062154;28;20295;-65
2022/02/14 04:06:02;;;;;;;23.13;9.93;;;0.30;82.90;;;;;;5066743;28;20217;-65
2022/02/14 04:08:30;;;;;;;21.03;9.93;;;0.30;83.00;;;;;;5073038;28;20289;-66
2022/02/14 04:10:58;;;;;;;17.80;9.57;;;0.20;83.00;;;;;;5070178;28;20204;-66
2022/02/14 04:13:25;;;;;;;19.83;8.97;;;0.30;83.20;;;;;;5064042;28;20714;-66
2022/02/14 04:15:52;;;;;;;22.53;9.30;;;0.30;83.20;;;;;;5070761;28;20239;-65
2022/02/14 04:18:19;;;;;;;17.13;9.17;;;0.30;83.30;;;;;;5070088;28;20206;-65
2022/02/14 04:20:46;;;;;;;20.73;9.53;;;0.30;83.40;;;;;;5072770;28;20311;-66
2022/02/14 04:23:12;;;;;;;18.07;9.03;;;0.30;83.50;;;;;;5072913;28;20686;-66
2022/02/14 04:25:41;;;;;;;19.77;9.20;;;0.30;83.70;;;;;;5072324;28;20320;-67
2022/02/14 04:28:08;;;;;;;19.33;10.23;;;0.20;83.70;;;;;;5076748;28;20295;-66
2022/02/14 04:30:35;;;;;;;15.80;8.77;;;0.30;83.80;;;;;;5081239;28;20244;-65
2022/02/14 04:33:02;;;;;;;18.23;9.33;;;0.20;83.70;;;;;;5072755;28;20300;-66
2022/02/14 04:35:30;;;;;;;14.53;7.53;;;0.20;83.70;;;;;;5072951;28;20201;-66
2022/02/14 04:37:59;;;;;;;15.23;9.00;;;0.30;83.90;;;;;;5072589;28;20320;-66
2022/02/14 04:40:30;;;;;;;18.23;9.23;;;0.30;84.00;;;;;;5073027;28;20209;-67
2022/02/14 04:42:59;;;;;;;18.60;9.60;;;0.30;83.80;;;;;;5073558;28;20743;-66
2022/02/14 04:45:26;;;;;;;22.30;10.13;;;0.30;83.70;;;;;;5073459;28;20229;-65
2022/02/14 04:47:53;;;;;;;19.40;9.30;;;0.30;83.70;;;;;;5064821;28;20724;-66
2022/02/14 04:50:20;;;;;;;17.60;9.10;;;0.30;83.70;;;;;;5069477;28;20623;-65
2022/02/14 04:52:47;;;;;;;17.70;8.83;;;0.30;83.70;;;;;;5073134;28;20232;-66
2022/02/14 04:55:14;;;;;;;22.27;10.23;;;0.30;83.80;;;;;;5072668;28;20279;-65
2022/02/14 04:57:41;;;;;;;20.93;10.27;;;0.20;83.70;;;;;;5071487;28;20296;-65
2022/02/14 05:00:12;;;;;;;23.00;10.20;;;0.30;83.80;;;;;;5072816;28;20657;-66
2022/02/14 05:02:39;;;;;;;21.00;9.13;;;0.20;83.60;;;;;;5071138;28;20208;-66
2022/02/14 05:05:06;;;;;;;17.80;9.37;;;0.20;83.70;;;;;;5072986;28;20713;-66
2022/02/14 05:07:33;;;;;;;19.90;10.23;;;0.20;83.80;;;;;;5066576;28;20317;-66
2022/02/14 05:10:00;;;;;;;22.37;10.17;;;0.30;83.90;;;;;;5072279;28;20300;-66
2022/02/14 05:12:27;;;;;;;17.57;10.50;;;0.20;83.90;;;;;;5072042;28;20291;-66
2022/02/14 05:14:54;;;;;;;23.80;10.73;;;0.30;84.00;;;;;;5073188;28;20696;-65
2022/02/14 05:17:22;;;;;;;21.80;10.27;;;0.20;83.90;;;;;;5072799;28;20315;-66
2022/02/14 05:19:49;;;;;;;20.60;10.53;;;0.30;84.00;;;;;;5073070;28;20672;-68
2022/02/14 05:22:16;;;;;;;19.40;10.70;;;1.30;85.20;;;;;;5073015;28;20307;-66
2022/02/14 05:24:43;;;;;;;22.67;10.13;;;0.20;84.20;;;;;;5072456;28;20626;-66
2022/02/14 05:27:09;;;;;;;22.17;10.47;;;0.20;84.30;;;;;;5072045;28;20604;-66
2022/02/14 05:29:36;;;;;;;16.30;9.27;;;0.20;84.30;;;;;;5077958;28;20201;-66
2022/02/14 05:32:04;;;;;;;18.93;9.37;;;0.30;84.50;;;;;;5072072;28;20211;-66
2022/02/14 05:34:32;;;;;;;18.50;9.70;;;0.20;84.60;;;;;;5070098;28;20619;-66
2022/02/14 05:36:59;;;;;;;20.33;10.27;;;0.20;84.60;;;;;;5072055;28;20233;-66
2022/02/14 05:39:27;;;;;;;20.33;9.40;;;0.20;84.50;;;;;;5072688;28;20625;-66
2022/02/14 05:41:54;;;;;;;23.23;10.77;;;0.20;84.60;;;;;;5071747;28;20719;-66
2022/02/14 05:44:21;;;;;;;19.60;9.40;;;0.20;84.70;;;;;;5072593;28;20223;-66
2022/02/14 05:46:48;;;;;;;20.47;10.17;;;0.10;84.60;;;;;;5067629;28;20672;-65
2022/02/14 05:49:15;;;;;;;19.83;9.57;;;0.10;84.70;;;;;;5071343;28;22009;-66
2022/02/14 05:51:43;;;;;;;17.13;9.50;;;0.10;84.80;;;;;;5072861;28;20233;-67
2022/02/14 05:54:10;;;;;;;20.67;9.93;;;0.10;85.00;;;;;;5075956;28;20661;-66
2022/02/14 05:56:36;;;;;;;20.33;9.97;;;0.10;85.20;;;;;;5077502;28;20228;-67
2022/02/14 05:59:04;;;;;;;18.83;10.03;;;0.10;85.30;;;;;;5072882;28;20288;-66
2022/02/14 06:01:31;;;;;;;21.07;10.20;;;0.10;85.50;;;;;;5069434;28;20201;-66
2022/02/14 06:03:58;;;;;;;18.37;9.17;;;0.10;85.30;;;;;;5072099;28;20209;-65
2022/02/14 06:06:25;;;;;;;18.10;9.67;;;0.10;85.30;;;;;;5073059;28;20225;-66
2022/02/14 06:08:53;;;;;;;20.17;9.63;;;0.10;85.40;;;;;;5069972;28;20228;-70
2022/02/14 06:11:21;;;;;;;18.23;8.93;;;0.10;85.50;;;;;;5074418;28;20202;-68
2022/02/14 06:13:48;;;;;;;16.77;9.47;;;0.10;85.50;;;;;;5069059;28;20743;-67
2022/02/14 06:16:15;;;;;;;16.90;8.90;;;0.10;85.40;;;;;;5068372;28;20211;-72
2022/02/14 06:18:42;;;;;;;18.40;9.20;;;0.10;85.30;;;;;;5072055;28;20213;-67
2022/02/14 06:21:08;;;;;;;17.00;9.43;;;0.10;85.20;;;;;;5071063;28;20697;-68
2022/02/14 06:23:36;;;;;;;21.07;9.97;;;0.10;85.10;;;;;;5079869;28;20232;-68
2022/02/14 06:26:04;;;;;;;19.00;10.03;;;0.10;85.10;;;;;;5081227;28;20647;-67
2022/02/14 06:28:37;;;;;;;19.60;9.33;;;0.10;85.10;;;;;;5074270;28;20209;-68
2022/02/14 06:31:04;;;;;;;21.43;9.73;;;0.20;85.00;;;;;;5067469;28;20205;-70
2022/02/14 06:33:31;;;;;;;18.17;9.40;;;0.20;85.30;;;;;;5073759;28;20292;-67
2022/02/14 06:35:58;;;;;;;18.83;9.47;;;0.30;84.20;;;;;;5076068;28;20675;-67
2022/02/14 06:38:25;;;;;;;18.67;9.43;;;0.30;83.80;;;;;;5073845;28;20272;-68
2022/02/14 06:40:52;;;;;;;19.37;9.60;;;0.30;83.40;;;;;;5075978;28;20209;-67
2022/02/14 06:43:20;;;;;;;20.40;8.97;;;0.40;83.20;;;;;;5079961;28;20212;-67
2022/02/14 06:45:47;;;;;;;20.70;9.53;;;0.50;82.80;;;;;;5077309;28;20339;-67
2022/02/14 06:48:14;;;;;;;19.07;8.93;;;0.60;82.30;;;;;;5073898;28;20308;-67
2022/02/14 06:50:41;;;;;;;18.33;8.57;;;0.70;81.70;;;;;;5067886;28;20211;-68
2022/02/14 06:53:07;;;;;;;16.03;8.53;;;0.70;80.90;;;;;;5073171;28;20210;-68
2022/02/14 06:55:34;;;;;;;19.70;8.83;;;0.80;80.20;;;;;;5077623;28;20206;-68
2022/02/14 06:58:01;;;;;;;17.60;8.13;;;0.90;79.30;;;;;;5073672;28;20201;-69
2022/02/14 07:00:30;;;;;;;18.93;8.47;;;1.00;78.70;;;;;;5068486;28;20205;-73
2022/02/14 07:02:56;;;;;;;16.10;8.50;;;1.10;78.30;;;;;;5077424;28;20632;-73
2022/02/14 07:05:25;;;;;;;19.20;7.93;;;1.20;77.60;;;;;;5079478;28;20247;-71
2022/02/14 07:07:52;;;;;;;16.90;8.43;;;1.30;77.30;;;;;;5074439;28;20226;-71
2022/02/14 07:10:20;;;;;;;16.63;8.40;;;1.40;77.10;;;;;;5080692;28;20229;-71
2022/02/14 07:12:47;;;;;;;24.67;8.63;;;1.70;76.70;;;;;;5084284;28;20263;-69
2022/02/14 07:15:14;;;;;;;20.00;9.10;;;2.00;76.50;;;;;;5071784;28;20202;-69
2022/02/14 07:17:45;;;;;;;18.63;8.80;;;2.30;75.70;;;;;;5075377;28;20204;-69
2022/02/14 07:20:13;;;;;;;15.77;8.20;;;2.50;74.10;;;;;;5073431;28;20760;-71
2022/02/14 07:22:39;;;;;;;19.27;7.97;;;3.10;74.30;;;;;;5083714;28;20247;-69
2022/02/14 07:25:07;;;;;;;13.53;7.27;;;3.40;71.60;;;;;;5072872;28;20236;-69
2022/02/14 07:27:34;;;;;;;17.70;8.80;;;3.60;70.20;;;;;;5074593;28;20308;-69
2022/02/14 07:30:02;;;;;;;14.80;7.97;;;3.70;69.60;;;;;;5074422;28;20205;-70
2022/02/14 07:32:29;;;;;;;15.73;8.63;;;3.70;69.10;;;;;;5075776;28;20206;-68
2022/02/14 07:34:58;;;;;;;15.97;8.77;;;3.70;68.20;;;;;;5070916;28;20209;-69
2022/02/14 07:37:25;;;;;;;11.87;7.63;;;3.80;68.00;;;;;;5073456;28;20283;-69
2022/02/14 07:39:52;;;;;;;18.80;7.10;;;3.80;67.60;;;;;;5071990;28;20205;-69
2022/02/14 07:42:19;;;;;;;18.53;8.47;;;3.80;67.20;;;;;;5072748;28;20278;-70
2022/02/14 07:44:46;;;;;;;14.73;7.43;;;3.90;67.10;;;;;;5068841;28;20248;-71
2022/02/14 07:47:13;;;;;;;12.17;8.20;;;3.90;66.70;;;;;;5073992;28;20259;-69
2022/02/14 07:49:40;;;;;;;16.30;8.30;;;3.90;66.40;;;;;;5077762;28;20201;-70
2022/02/14 07:52:09;;;;;;;16.70;8.20;;;4.10;66.80;;;;;;5078062;28;20225;-70
2022/02/14 07:54:35;;;;;;;18.17;8.73;;;4.20;66.70;;;;;;5076423;28;20288;-70
2022/02/14 07:57:03;;;;;;;15.73;7.80;;;4.40;66.60;;;;;;5073986;28;20292;-70
2022/02/14 07:59:29;;;;;;;14.60;8.17;;;4.50;66.40;;;;;;5071217;28;20241;-71
2022/02/14 08:01:56;;;;;;;14.40;8.10;;;4.70;66.10;;;;;;5073978;28;20213;-69
2022/02/14 08:04:23;;;;;;;15.13;8.10;;;4.90;65.60;;;;;;5075288;28;20232;-69
2022/02/14 08:06:50;;;;;;;25.37;8.80;;;5.00;65.20;;;;;;5067919;28;20249;-70
2022/02/14 08:09:19;;;;;;;14.17;8.33;;;5.10;65.30;;;;;;5070858;28;20227;-69
2022/02/14 08:11:46;;;;;;;13.60;7.53;;;5.30;65.00;;;;;;5074888;28;20288;-70
2022/02/14 08:14:13;;;;;;;13.67;7.67;;;5.40;64.60;;;;;;5067839;28;21012;-69
2022/02/14 08:16:41;;;;;;;18.50;8.53;;;5.40;64.10;;;;;;5067352;28;20209;-69
2022/02/14 08:19:07;;;;;;;15.23;8.23;;;5.40;63.50;;;;;;5075362;28;20273;-70
2022/02/14 08:21:35;;;;;;;16.23;8.40;;;5.50;63.60;;;;;;5075567;28;20292;-72
2022/02/14 08:24:02;;;;;;;14.80;8.73;;;5.60;64.00;;;;;;5074818;28;20741;-71
2022/02/14 08:26:31;;;;;;;14.67;8.43;;;5.80;64.00;;;;;;5073184;28;20228;-70
2022/02/14 08:28:58;;;;;;;14.33;8.10;;;6.00;63.50;;;;;;5077131;28;20232;-70
2022/02/14 08:31:25;;;;;;;19.00;8.97;;;6.10;62.30;;;;;;5072790;28;20205;-69
2022/02/14 08:33:52;;;;;;;16.37;8.80;;;6.20;61.60;;;;;;5070439;28;20226;-71
2022/02/14 08:36:19;;;;;;;15.87;7.53;;;6.30;61.30;;;;;;5073644;28;20247;-70
2022/02/14 08:38:46;;;;;;;17.27;7.67;;;6.20;61.00;;;;;;5073319;28;20667;-69
2022/02/14 08:41:13;;;;;;;15.03;8.03;;;7.10;61.70;;;;;;5066212;28;20202;-69
2022/02/14 08:43:42;;;;;;;13.73;7.80;;;6.30;60.90;;;;;;5079617;28;20277;-70
2022/02/14 08:46:08;;;;;;;14.37;8.23;;;6.40;61.20;;;;;;5073746;28;20201;-70
2022/02/14 08:48:35;;;;;;;13.17;8.00;;;6.50;61.20;;;;;;5073309;28;20259;-70
2022/02/14 08:51:04;;;;;;;18.70;7.80;;;6.60;61.00;;;;;;5074088;28;20232;-71
2022/02/14 08:53:35;;;;;;;13.20;8.13;;;6.80;60.90;;;;;;5074461;28;20202;-69
2022/02/14 08:56:05;;;;;;;13.30;7.93;;;7.00;60.30;;;;;;5075485;28;20206;-70
2022/02/14 08:58:32;;;;;;;17.17;8.57;;;7.10;59.80;;;;;;5075165;28;20201;-70
2022/02/14 09:01:01;;;;;;;13.63;7.80;;;7.20;59.70;;;;;;5072697;28;20209;-69
2022/02/14 09:03:28;;;;;;;18.13;8.40;;;7.30;59.40;;;;;;5072985;28;20300;-70
2022/02/14 09:05:55;;;;;;;13.93;8.37;;;7.50;59.50;;;;;;5072474;28;20675;-69
2022/02/14 09:08:24;;;;;;;17.00;8.30;;;7.70;59.60;;;;;;5070478;28;20610;-69
2022/02/14 09:10:52;;;;;;;17.43;8.53;;;7.90;63.40;;;;;;5072847;28;20670;-70
2022/02/14 09:13:19;;;;;;;13.47;8.20;;;8.60;62.60;;;;;;5072963;28;20206;-70
2022/02/14 09:15:46;;;;;;;16.87;8.40;;;10.30;68.80;;;;;;5067055;28;20265;-70
2022/02/14 09:18:15;;;;;;;15.57;8.30;;;13.40;61.20;;;;;;5058674;28;20623;-70
2022/02/14 09:20:42;;;;;;;13.90;8.47;;;16.80;49.90;;;;;;5073276;28;20225;-71
2022/02/14 09:23:09;;;;;;;15.87;9.10;;;19.70;41.80;;;;;;5070158;28;20194;-71
2022/02/14 09:25:36;;;;;;;13.48;8.90;;;21.90;36.50;;;;;;5079752;28;20244;-70
2022/02/14 09:28:03;;;;;;;15.65;9.88;;;23.80;34.50;;;;;;5074160;28;20685;-71
2022/02/14 09:30:31;;;;;;;13.27;9.13;;;26.00;32.10;;;;;;5071992;28;20297;-71
2022/02/14 09:32:58;;;;;;;14.55;9.73;;;27.60;29.00;;;;;;5070082;28;20220;-71
2022/02/14 09:35:29;;;;;;;14.10;9.68;;;28.70;27.60;;;;;;5070453;28;20250;-70
2022/02/14 09:37:58;;;;;;;16.08;9.70;;;29.50;27.00;;;;;;5070801;28;20351;-70
2022/02/14 09:40:26;;;;;;;11.75;9.25;;;30.50;25.80;;;;;;5070884;28;20236;-71
2022/02/14 09:42:54;;;;;;;13.35;9.63;;;31.30;25.10;;;;;;5072874;28;20607;-71
2022/02/14 09:45:23;;;;;;;16.02;9.77;;;31.80;24.70;;;;;;5069699;28;20201;-71
2022/02/14 09:47:55;;;;;;;15.23;9.82;;;32.20;24.10;;;;;;5069728;28;20221;-73
2022/02/14 09:50:24;;;;;;;13.50;9.00;;;32.50;23.30;;;;;;5068040;28;20616;-74
2022/02/14 09:52:53;;;;;;;12.90;9.63;;;32.70;23.40;;;;;;5075422;28;20236;-73
2022/02/14 09:55:23;;;;;;;15.25;10.23;;;33.00;23.10;;;;;;5072603;28;20212;-71
2022/02/14 09:57:50;;;;;;;14.43;9.50;;;33.40;22.80;;;;;;5076294;28;20197;-72
2022/02/14 10:00:18;;;;;;;12.90;9.15;;;34.30;22.50;;;;;;5060439;28;20216;-71
2022/02/14 10:02:45;;;;;;;21.42;9.15;;;34.70;21.90;;;;;;5075639;28;20725;-68
2022/02/14 10:05:18;;;;;;;13.70;9.50;;;34.60;21.70;;;;;;5083111;28;20277;-74
2022/02/14 10:07:47;;;;;;;11.90;8.82;;;34.50;21.70;;;;;;5075521;28;20673;-71
2022/02/14 10:10:19;;;;;;;15.13;9.63;;;34.70;21.70;;;;;;5069913;28;20252;-69
2022/02/14 10:12:48;;;;;;;12.05;9.25;;;34.80;21.50;;;;;;5074626;28;20304;-69
2022/02/14 10:15:16;;;;;;;12.98;9.73;;;35.20;21.10;;;;;;5080278;28;20308;-70
2022/02/14 10:17:45;;;;;;;11.30;8.95;;;35.30;21.20;;;;;;5075891;28;20201;-70
2022/02/14 10:20:15;;;;;;;14.80;9.55;;;35.80;21.20;;;;;;5074458;28;20202;-70
2022/02/14 10:22:53;;;;;;;13.20;9.65;;;36.20;21.00;;;;;;5072139;28;20724;-69
2022/02/14 10:25:36;;;;;;;11.07;8.88;;;37.00;20.60;;;;;;5075138;28;20244;-71
2022/02/14 10:28:21;;;;;;;12.25;10.05;;;37.40;20.20;;;;;;5075130;28;20808;-69
2022/02/14 10:30:57;;;;;;;11.63;9.43;;;37.50;20.10;;;;;;5070381;28;20236;-71
2022/02/14 10:33:24;;;;;;;12.90;9.48;;;37.70;19.80;;;;;;5070812;28;20278;-69
2022/02/14 10:35:51;;;;;;;12.05;9.27;;;37.80;20.00;;;;;;5075555;28;20246;-70
2022/02/14 10:38:22;;;;;;;9.95;8.70;;;38.10;20.40;;;;;;5074811;28;20229;-69
2022/02/14 10:40:50;;;;;;;12.50;9.25;;;38.40;19.90;;;;;;5066184;28;20220;-71
2022/02/14 10:43:27;;;;;;;11.45;10.20;;;38.10;19.60;;;;;;5063148;28;20205;-71
2022/02/14 10:45:54;;;;;;;14.75;8.98;;;37.90;19.40;;;;;;5067576;28;20209;-71
2022/02/14 10:48:35;;;;;;;13.18;9.10;;;37.10;19.80;;;;;;5067624;28;20336;-71
2022/02/14 10:51:02;;;;;;;14.60;9.15;;;36.40;19.90;;;;;;5068402;28;20213;-70
2022/02/14 10:53:29;;;;;;;12.15;9.35;;;36.60;20.10;;;;;;5076627;28;20343;-71
2022/02/14 10:55:59;;;;;;;12.05;9.55;;;37.10;20.10;;;;;;5091707;28;20200;-71
2022/02/14 10:58:30;;;;;;;13.00;10.18;;;38.00;19.70;;;;;;5078601;28;20244;-70
2022/02/14 11:00:58;;;;;;;12.40;9.45;;;38.40;19.50;;;;;;5073727;28;20206;-74
2022/02/14 11:03:25;;;;;;;10.13;8.80;;;38.50;19.10;;;;;;5074460;28;20308;-70
2022/02/14 11:05:54;;;;;;;13.88;9.32;;;38.40;19.30;;;;;;5067703;28;20296;-70
2022/02/14 11:08:22;;;;;;;13.70;9.48;;;38.70;19.30;;;;;;5063442;28;20311;-70
2022/02/14 11:10:52;;;;;;;14.07;8.73;;;38.90;19.00;;;;;;5063059;28;20210;-71
2022/02/14 11:13:25;;;;;;;9.80;8.80;;;38.80;18.70;;;;;;5067129;28;20297;-70
2022/02/14 11:15:55;;;;;;;9.80;8.80;;;38.80;19.00;;;;;;5072311;28;20691;-69
2022/02/14 11:18:30;;;;;;;11.05;8.48;;;38.70;19.10;;;;;;5070964;28;20289;-71
2022/02/14 11:20:59;;;;;;;12.43;9.18;;;38.90;19.00;;;;;;5077305;28;20228;-69
2022/02/14 11:23:28;;;;;;;11.60;9.65;;;39.40;19.00;;;;;;5086628;28;20287;-70
2022/02/14 11:26:02;;;;;;;12.45;10.40;;;39.70;18.90;;;;;;5070547;28;20236;-69
2022/02/14 11:28:36;;;;;;;10.90;8.63;;;40.40;18.80;;;;;;5072357;28;20305;-71
2022/02/14 11:31:11;;;;;;;11.38;9.65;;;40.80;18.50;;;;;;5071662;28;20635;-68
2022/02/14 11:33:41;;;;;;;11.88;9.32;;;41.30;18.50;;;;;;5071245;28;20201;-69
2022/02/14 11:36:10;;;;;;;14.25;9.63;;;41.80;18.30;;;;;;5063314;28;20210;-70
2022/02/14 11:38:45;;;;;;;13.48;9.98;;;42.10;18.10;;;;;;5072135;28;20230;-72
2022/02/14 11:41:27;;;;;;;11.40;8.85;;;41.80;18.60;;;;;;5069215;28;20205;-69
2022/02/14 11:44:13;;;;;;;12.23;8.90;;;41.80;18.20;;;;;;5080210;28;20638;-69
2022/02/14 11:46:42;;;;;;;12.82;10.00;;;41.80;18.10;;;;;;5069417;28;20202;-69
2022/02/14 11:49:19;;;;;;;12.18;8.98;;;41.80;18.10;;;;;;5066758;28;20770;-70
2022/02/14 11:51:50;;;;;;;11.30;8.65;;;41.80;18.00;;;;;;5070971;28;20241;-69
2022/02/14 11:54:35;;;;;;;11.77;9.13;;;42.00;18.10;;;;;;5074677;28;20680;-70
2022/02/14 11:57:23;;;;;;;12.88;9.82;;;42.40;18.00;;;;;;5063910;28;20286;-69
2022/02/14 11:59:51;;;;;;;11.30;9.35;;;42.30;17.90;;;;;;5071873;28;20259;-70
2022/02/14 12:02:28;;;;;;;13.88;10.15;;;42.10;17.70;;;;;;5063405;28;20229;-69
2022/02/14 12:04:55;;;;;;;10.13;8.85;;;42.00;18.10;;;;;;5071412;28;20286;-69
2022/02/14 12:07:34;;;;;;;12.07;9.77;;;42.10;17.60;;;;;;5071680;28;20701;-69
2022/02/14 12:10:22;;;;;;;9.82;8.57;;;41.40;17.80;;;;;;5078791;28;20197;-69
2022/02/14 12:13:13;;;;;;;10.73;9.43;;;40.90;18.20;;;;;;5064527;28;20197;-69
2022/02/14 12:21:22;;;;;;;14.43;9.73;;;32.20;20.30;;;;;;5068424;28;20311;-70
2022/02/14 12:23:51;;;;;;;13.85;10.82;;;29.00;21.90;;;;;;5078494;28;20284;-69
2022/02/14 12:26:19;;;;;;;15.50;9.95;;;26.30;23.70;;;;;;5073265;28;20288;-69
2022/02/14 12:29:31;;;;;;;12.93;9.45;;;24.20;25.20;;;;;;5063677;28;20225;-69
2022/02/14 12:31:46;;;;;;;13.27;9.75;;;22.40;26.30;;;;;;5066674;28;20204;-68
2022/02/14 12:34:13;;;;;;;17.70;10.13;;;20.50;27.80;;;;;;5076471;28;20197;-70
2022/02/14 12:36:51;;;;;;;14.23;9.65;;;19.20;28.90;;;;;;5063875;28;20293;-69
2022/02/14 12:39:31;;;;;;;16.15;9.98;;;18.20;30.30;;;;;;5064790;28;20201;-70
2022/02/14 12:41:59;;;;;;;14.23;9.87;;;17.20;31.00;;;;;;5072876;28;20205;-71
2022/02/14 12:44:30;;;;;;;16.37;9.70;;;16.10;32.20;;;;;;5078987;28;20211;-71
2022/02/14 12:46:59;;;;;;;12.90;9.13;;;15.40;33.50;;;;;;5073475;28;20293;-69
2022/02/14 12:49:26;;;;;;;12.40;9.40;;;14.70;34.80;;;;;;5083315;28;20673;-71
2022/02/14 12:51:53;;;;;;;14.73;9.40;;;14.00;35.60;;;;;;5076882;28;20248;-72
2022/02/14 12:54:20;;;;;;;12.97;8.80;;;13.50;36.70;;;;;;5072806;28;20780;-72